createdAt,value
2023-01-30T00:01:44.943Z,52.90
2023-01-30T00:04:16.112Z,52.50
2023-01-30T00:06:43.891Z,52.40
2023-01-30T00:09:17.128Z,53.00
2023-01-30T00:11:44.248Z,52.40
2023-01-30T00:14:11.018Z,53.20
2023-01-30T00:16:37.852Z,53.00
2023-01-30T00:19:04.759Z,52.50
2023-01-30T00:21:32.610Z,53.10
2023-01-30T00:24:02.886Z,53.10
2023-01-30T00:26:29.743Z,52.50
2023-01-30T00:28:56.463Z,53.10
2023-01-30T00:31:23.309Z,53.20
2023-01-30T00:33:50.411Z,53.20
2023-01-30T00:36:17.176Z,54.20
2023-01-30T00:38:43.977Z,52.60
2023-01-30T00:41:15.166Z,53.30
2023-01-30T00:44:01.436Z,52.70
2023-01-30T00:46:51.655Z,52.60
2023-01-30T00:49:21.149Z,52.70
2023-01-30T00:51:48.741Z,52.70
2023-01-30T00:54:15.810Z,52.70
2023-01-30T00:56:42.593Z,53.10
2023-01-30T00:59:09.416Z,53.50
2023-01-30T01:01:37.888Z,53.40
2023-01-30T01:04:06.758Z,53.10
2023-01-30T01:06:33.560Z,52.70
2023-01-30T01:09:00.554Z,53.40
2023-01-30T01:11:27.345Z,52.70
2023-01-30T01:13:59.801Z,53.20
2023-01-30T01:16:27.909Z,52.80
2023-01-30T01:18:58.440Z,53.00
2023-01-30T01:21:25.439Z,53.60
2023-01-30T01:23:55.242Z,52.80
2023-01-30T01:26:22.395Z,53.30
2023-01-30T01:28:49.250Z,52.80
2023-01-30T01:31:17.314Z,53.10
2023-01-30T01:33:44.236Z,53.50
2023-01-30T01:36:12.267Z,52.80
2023-01-30T01:38:42.829Z,53.80
2023-01-30T01:41:14.796Z,52.90
2023-01-30T01:44:02.278Z,52.90
2023-01-30T01:46:52.069Z,52.90
2023-01-30T01:49:25.993Z,53.00
2023-01-30T01:51:59.509Z,52.90
2023-01-30T01:54:34.427Z,53.30
2023-01-30T01:57:08.528Z,52.90
2023-01-30T01:59:40.199Z,53.50
2023-01-30T02:02:12.216Z,53.90
2023-01-30T02:05:01.960Z,53.30
2023-01-30T02:07:34.758Z,52.90
2023-01-30T02:10:02.153Z,53.00
2023-01-30T02:12:32.189Z,53.10
2023-01-30T02:15:00.639Z,53.00
2023-01-30T02:17:27.484Z,53.50
2023-01-30T02:20:07.205Z,53.90
2023-01-30T02:23:21.722Z,53.10
2023-01-30T02:26:03.549Z,53.10
2023-01-30T02:28:44.099Z,53.10
2023-01-30T02:31:44.745Z,53.10
2023-01-30T02:34:38.756Z,53.10
2023-01-30T02:37:46.271Z,53.10
2023-01-30T02:40:25.315Z,53.10
2023-01-30T02:43:16.105Z,53.10
2023-01-30T02:45:53.832Z,53.20
2023-01-30T02:48:30.658Z,53.70
2023-01-30T02:51:09.379Z,53.90
2023-01-30T02:53:37.327Z,53.30
2023-01-30T02:56:05.351Z,53.30
2023-01-30T02:58:38.516Z,53.30
2023-01-30T03:01:35.943Z,54.00
2023-01-30T03:04:08.616Z,53.40
2023-01-30T03:06:58.920Z,53.30
2023-01-30T03:09:31.520Z,53.40
2023-01-30T03:12:01.446Z,53.40
2023-01-30T03:14:49.557Z,53.40
2023-01-30T03:17:19.040Z,53.40
2023-01-30T03:19:46.328Z,54.00
2023-01-30T03:22:13.191Z,54.90
2023-01-30T03:24:40.166Z,53.60
2023-01-30T03:27:10.940Z,53.80
2023-01-30T03:29:38.449Z,53.90
2023-01-30T03:32:06.691Z,53.40
2023-01-30T03:34:33.661Z,53.50
2023-01-30T03:37:01.642Z,54.10
2023-01-30T03:39:28.608Z,54.30
2023-01-30T03:41:56.099Z,54.40
2023-01-30T03:44:23.086Z,53.50
2023-01-30T03:46:50.430Z,54.10
2023-01-30T03:49:18.385Z,54.30
2023-01-30T03:51:46.959Z,53.70
2023-01-30T03:54:14.112Z,53.90
2023-01-30T03:56:40.861Z,54.00
2023-01-30T03:59:07.961Z,54.00
2023-01-30T04:01:48.288Z,53.70
2023-01-30T04:04:15.103Z,53.80
2023-01-30T04:06:42.492Z,54.10
2023-01-30T04:09:09.410Z,54.10
2023-01-30T04:11:41.318Z,53.80
2023-01-30T04:14:08.488Z,54.40
2023-01-30T04:16:43.591Z,54.00
2023-01-30T04:19:48.799Z,54.40
2023-01-30T04:22:15.709Z,53.70
2023-01-30T04:24:42.666Z,53.70
2023-01-30T04:27:09.599Z,54.00
2023-01-30T04:29:42.397Z,53.70
2023-01-30T04:32:11.265Z,54.60
2023-01-30T04:34:38.839Z,54.30
2023-01-30T04:37:05.907Z,54.10
2023-01-30T04:39:32.763Z,54.10
2023-01-30T04:41:59.585Z,53.90
2023-01-30T04:44:26.777Z,54.40
2023-01-30T04:47:01.256Z,54.50
2023-01-30T04:49:28.243Z,53.70
2023-01-30T04:51:55.697Z,53.70
2023-01-30T04:54:23.040Z,54.60
2023-01-30T04:56:49.945Z,53.70
2023-01-30T04:59:16.829Z,53.80
2023-01-30T05:01:45.442Z,54.50
2023-01-30T05:04:13.230Z,54.60
2023-01-30T05:06:39.985Z,54.20
2023-01-30T05:09:06.778Z,54.50
2023-01-30T05:11:33.982Z,54.90
2023-01-30T05:14:00.972Z,53.80
2023-01-30T05:16:27.804Z,54.50
2023-01-30T05:18:54.596Z,53.80
2023-01-30T05:21:27.940Z,54.60
2023-01-30T05:23:55.899Z,54.00
2023-01-30T05:26:23.519Z,53.90
2023-01-30T05:28:55.612Z,53.90
2023-01-30T05:31:23.101Z,53.90
2023-01-30T05:33:51.943Z,54.40
2023-01-30T05:36:20.417Z,54.10
2023-01-30T05:38:47.242Z,54.40
2023-01-30T05:41:21.512Z,54.70
2023-01-30T05:43:50.473Z,54.70
2023-01-30T05:46:17.380Z,54.60
2023-01-30T05:48:45.467Z,54.40
2023-01-30T05:51:20.530Z,54.10
2023-01-30T05:53:47.541Z,54.10
2023-01-30T05:56:14.679Z,54.60
2023-01-30T05:58:41.996Z,54.10
2023-01-30T06:01:13.043Z,54.70
2023-01-30T06:03:39.857Z,55.00
2023-01-30T06:06:10.261Z,54.40
2023-01-30T06:08:39.864Z,54.70
2023-01-30T06:11:13.112Z,54.70
2023-01-30T06:13:40.098Z,54.80
2023-01-30T06:16:08.348Z,54.50
2023-01-30T06:18:38.457Z,54.50
2023-01-30T06:21:05.755Z,55.20
2023-01-30T06:23:32.864Z,54.60
2023-01-30T06:25:59.708Z,55.50
2023-01-30T06:28:27.719Z,55.30
2023-01-30T06:30:56.959Z,54.90
2023-01-30T06:33:23.796Z,54.80
2023-01-30T06:35:52.040Z,55.10
2023-01-30T06:38:20.300Z,55.30
2023-01-30T06:40:49.195Z,55.90
2023-01-30T06:43:17.896Z,55.90
2023-01-30T06:45:44.693Z,56.60
2023-01-30T06:48:11.596Z,55.80
2023-01-30T06:50:39.448Z,55.80
2023-01-30T06:53:10.597Z,57.10
2023-01-30T06:55:38.295Z,56.40
2023-01-30T06:58:15.477Z,57.60
2023-01-30T07:00:43.086Z,56.30
2023-01-30T07:03:15.321Z,56.70
2023-01-30T07:05:46.088Z,56.30
2023-01-30T07:08:14.022Z,56.90
2023-01-30T07:10:44.054Z,57.50
2023-01-30T07:13:12.559Z,56.90
2023-01-30T07:15:47.614Z,56.40
2023-01-30T07:18:15.590Z,56.90
2023-01-30T07:20:45.998Z,56.40
2023-01-30T07:23:12.762Z,56.00
2023-01-30T07:25:39.459Z,57.30
2023-01-30T07:28:06.258Z,56.50
2023-01-30T07:30:35.921Z,56.90
2023-01-30T07:33:06.624Z,56.00
2023-01-30T07:35:35.268Z,55.90
2023-01-30T07:38:02.059Z,55.80
2023-01-30T07:40:31.675Z,55.70
2023-01-30T07:43:01.872Z,56.80
2023-01-30T07:45:34.500Z,56.50
2023-01-30T07:48:01.264Z,55.80
2023-01-30T07:50:28.296Z,56.10
2023-01-30T07:52:55.010Z,56.50
2023-01-30T07:55:24.388Z,56.00
2023-01-30T07:57:51.169Z,55.20
2023-01-30T08:00:18.840Z,55.80
2023-01-30T08:02:45.884Z,54.90
2023-01-30T08:05:12.736Z,55.90
2023-01-30T08:07:39.580Z,55.30
2023-01-30T08:10:07.047Z,55.60
2023-01-30T08:12:34.080Z,54.70
2023-01-30T08:15:03.263Z,55.10
2023-01-30T08:17:29.996Z,54.70
2023-01-30T08:19:56.712Z,54.70
2023-01-30T08:22:23.610Z,55.20
2023-01-30T08:24:50.648Z,55.30
2023-01-30T08:27:17.375Z,54.60
2023-01-30T08:29:45.046Z,54.50
2023-01-30T08:32:14.017Z,55.50
2023-01-30T08:34:41.502Z,54.40
2023-01-30T08:37:08.360Z,54.90
2023-01-30T08:39:37.154Z,55.00
2023-01-30T08:42:04.154Z,54.20
2023-01-30T08:44:30.906Z,54.20
2023-01-30T08:46:57.735Z,54.10
2023-01-30T08:49:24.523Z,54.80
2023-01-30T08:51:51.312Z,54.10
2023-01-30T08:54:18.129Z,54.00
2023-01-30T08:56:46.058Z,53.80
2023-01-30T08:59:13.152Z,54.10
2023-01-30T09:01:40.066Z,54.10
2023-01-30T09:04:06.844Z,53.70
2023-01-30T09:06:33.547Z,54.40
2023-01-30T09:09:00.635Z,54.10
2023-01-30T09:11:27.635Z,54.40
2023-01-30T09:13:54.397Z,53.40
2023-01-30T09:16:21.442Z,53.70
2023-01-30T09:18:48.396Z,53.30
2023-01-30T09:21:15.163Z,53.70
2023-01-30T09:23:42.116Z,53.70
2023-01-30T09:26:08.900Z,53.20
2023-01-30T09:28:36.250Z,54.00
2023-01-30T09:31:03.905Z,53.40
2023-01-30T09:33:31.115Z,53.10
2023-01-30T09:35:57.968Z,53.20
2023-01-30T09:38:24.771Z,53.30
2023-01-30T09:41:12.285Z,53.00
2023-01-30T09:44:05.948Z,53.00
2023-01-30T09:46:41.605Z,52.90
2023-01-30T09:49:14.498Z,52.80
2023-01-30T09:52:03.533Z,53.60
2023-01-30T09:54:34.507Z,52.80
2023-01-30T09:57:21.231Z,52.80
2023-01-30T10:00:36.577Z,53.60
2023-01-30T10:03:13.016Z,52.60
2023-01-30T10:05:52.799Z,52.60
2023-01-30T10:08:45.394Z,53.10
2023-01-30T10:11:24.235Z,52.50
2023-01-30T10:14:12.335Z,52.80
2023-01-30T10:16:54.229Z,52.90
2023-01-30T10:19:44.949Z,53.20
2023-01-30T10:22:32.336Z,53.20
2023-01-30T10:25:25.335Z,53.50
2023-01-30T10:28:17.161Z,53.00
2023-01-30T10:30:48.009Z,52.80
2023-01-30T10:33:50.558Z,53.30
2023-01-30T10:36:29.035Z,52.60
2023-01-30T10:38:59.105Z,52.70
2023-01-30T10:41:47.290Z,52.90
2023-01-30T10:44:14.904Z,52.90
2023-01-30T10:47:03.675Z,52.50
2023-01-30T10:49:51.813Z,52.50
2023-01-30T10:52:49.546Z,53.20
2023-01-30T10:55:37.899Z,52.50
2023-01-30T10:58:17.500Z,52.50
2023-01-30T11:00:55.897Z,52.50
2023-01-30T11:03:35.183Z,52.70
2023-01-30T11:06:07.438Z,52.40
2023-01-30T11:08:35.708Z,52.40
2023-01-30T11:11:32.858Z,52.70
2023-01-30T11:14:05.220Z,52.30
2023-01-30T11:16:35.220Z,52.40
2023-01-30T11:19:22.220Z,52.90
2023-01-30T11:22:01.719Z,52.30
2023-01-30T11:24:39.048Z,52.90
2023-01-30T11:27:17.429Z,52.70
2023-01-30T11:29:44.997Z,52.40
2023-01-30T11:32:16.129Z,52.60
2023-01-30T11:34:44.215Z,52.80
2023-01-30T11:37:27.654Z,52.60
2023-01-30T11:39:54.427Z,52.80
2023-01-30T11:42:31.756Z,52.50
2023-01-30T11:45:16.276Z,52.50
2023-01-30T11:47:57.933Z,52.60
2023-01-30T11:50:43.162Z,52.50
2023-01-30T11:53:37.917Z,52.50
2023-01-30T11:56:17.262Z,52.50
2023-01-30T11:58:48.017Z,52.50
2023-01-30T12:01:16.128Z,53.20
2023-01-30T12:03:51.140Z,52.80
2023-01-30T12:06:23.424Z,52.40
2023-01-30T12:08:54.094Z,52.40
2023-01-30T12:11:47.098Z,52.40
2023-01-30T12:14:31.992Z,52.70
2023-01-30T12:17:13.724Z,52.40
2023-01-30T12:19:53.064Z,52.40
2023-01-30T12:22:29.069Z,52.40
2023-01-30T12:25:10.748Z,53.30
2023-01-30T12:28:01.346Z,52.40
2023-01-30T12:30:41.817Z,52.40
2023-01-30T12:33:14.295Z,52.40
2023-01-30T12:35:58.547Z,53.10
2023-01-30T12:38:45.709Z,52.40
2023-01-30T12:41:54.531Z,52.40
2023-01-30T12:44:44.758Z,52.40
2023-01-30T12:47:22.151Z,52.50
2023-01-30T12:50:21.125Z,53.20
2023-01-30T12:53:07.382Z,53.10
2023-01-30T12:55:34.033Z,53.10
2023-01-30T12:58:23.427Z,54.00
2023-01-30T13:01:08.720Z,53.20
2023-01-30T13:04:02.922Z,53.20
2023-01-30T13:06:55.108Z,53.10
2023-01-30T13:09:55.721Z,53.00
2023-01-30T13:12:31.627Z,53.00
2023-01-30T13:15:16.533Z,52.90
2023-01-30T13:17:53.086Z,53.70
2023-01-30T13:20:44.394Z,53.50
2023-01-30T13:23:36.092Z,52.80
2023-01-30T13:26:12.450Z,52.70
2023-01-30T13:28:47.337Z,52.70
2023-01-30T13:31:21.363Z,52.60
2023-01-30T13:33:51.164Z,52.50
2023-01-30T13:36:25.985Z,53.00
2023-01-30T13:39:09.118Z,53.30
2023-01-30T13:41:42.651Z,52.40
2023-01-30T13:44:22.920Z,52.60
2023-01-30T13:46:52.683Z,53.00
2023-01-30T13:49:25.667Z,53.10
2023-01-30T13:52:27.404Z,52.30
2023-01-30T13:55:06.199Z,52.50
2023-01-30T13:57:55.973Z,52.20
2023-01-30T14:00:32.978Z,52.20
2023-01-30T14:03:08.753Z,52.00
2023-01-30T14:05:54.337Z,52.00
2023-01-30T14:08:25.538Z,51.90
2023-01-30T14:10:55.551Z,52.60
2023-01-30T14:13:26.600Z,51.80
2023-01-30T14:16:05.234Z,52.30
2023-01-30T14:18:34.012Z,51.70
2023-01-30T14:21:17.098Z,51.70
2023-01-30T14:24:04.821Z,51.60
2023-01-30T14:26:53.105Z,51.60
2023-01-30T14:29:53.253Z,51.60
2023-01-30T14:32:22.158Z,51.50
2023-01-30T14:35:01.044Z,51.50
2023-01-30T14:37:35.083Z,51.40
2023-01-30T14:40:02.551Z,51.40
2023-01-30T14:42:31.442Z,52.00
2023-01-30T14:45:05.631Z,51.50
2023-01-30T14:47:45.790Z,51.30
2023-01-30T14:50:22.633Z,51.20
2023-01-30T14:52:54.483Z,51.20
2023-01-30T14:55:24.952Z,51.20
2023-01-30T14:57:58.686Z,52.00
2023-01-30T15:00:33.480Z,51.70
2023-01-30T15:03:03.684Z,51.00
2023-01-30T15:05:44.558Z,51.00
2023-01-30T15:08:23.555Z,50.90
2023-01-30T15:11:26.448Z,51.10
2023-01-30T15:14:04.349Z,50.90
2023-01-30T15:16:38.635Z,50.90
2023-01-30T15:19:33.485Z,50.80
2023-01-30T15:22:13.756Z,50.80
2023-01-30T15:25:01.019Z,50.90
2023-01-30T15:27:47.207Z,51.40
2023-01-30T15:30:38.062Z,50.70
2023-01-30T15:33:29.827Z,50.70
2023-01-30T15:35:58.079Z,50.60
2023-01-30T15:38:31.528Z,51.10
2023-01-30T15:41:02.731Z,50.60
2023-01-30T15:43:44.696Z,50.90
2023-01-30T15:46:35.863Z,50.60
2023-01-30T15:49:34.838Z,50.50
2023-01-30T15:52:04.615Z,50.50
2023-01-30T15:54:31.655Z,50.50
2023-01-30T15:57:00.800Z,50.70
2023-01-30T15:59:39.885Z,50.60
2023-01-30T16:02:30.670Z,50.60
2023-01-30T16:05:24.235Z,50.60
2023-01-30T16:07:54.590Z,50.60
2023-01-30T16:10:30.421Z,51.50
2023-01-30T16:13:03.315Z,51.20
2023-01-30T16:15:40.888Z,50.80
2023-01-30T16:18:33.947Z,50.80
2023-01-30T16:21:07.558Z,50.80
2023-01-30T16:23:41.606Z,50.80
2023-01-30T16:26:14.355Z,50.80
2023-01-30T16:28:41.208Z,51.00
2023-01-30T16:31:10.112Z,51.50
2023-01-30T16:33:37.890Z,50.80
2023-01-30T16:36:29.089Z,51.70
2023-01-30T16:38:56.078Z,50.80
2023-01-30T16:41:32.054Z,51.10
2023-01-30T16:44:21.394Z,50.80
2023-01-30T16:46:48.186Z,50.80
2023-01-30T16:49:20.050Z,51.30
2023-01-30T16:51:47.749Z,51.60
2023-01-30T16:54:24.775Z,50.90
2023-01-30T16:56:55.566Z,50.90
2023-01-30T16:59:33.075Z,50.90
2023-01-30T17:02:04.160Z,50.90
2023-01-30T17:04:33.125Z,51.10
2023-01-30T17:07:03.909Z,51.10
2023-01-30T17:09:35.385Z,50.90
2023-01-30T17:12:22.219Z,50.90
2023-01-30T17:15:18.281Z,51.70
2023-01-30T17:17:45.422Z,51.50
2023-01-30T17:20:13.629Z,51.50
2023-01-30T17:22:43.390Z,50.90
2023-01-30T17:25:43.603Z,51.80
2023-01-30T17:28:21.174Z,51.20
2023-01-30T17:30:50.476Z,50.90
2023-01-30T17:33:17.423Z,50.90
2023-01-30T17:35:45.164Z,51.40
2023-01-30T17:38:12.673Z,50.90
2023-01-30T17:40:39.465Z,51.70
2023-01-30T17:43:06.342Z,50.90
2023-01-30T17:45:33.445Z,51.00
2023-01-30T17:48:00.298Z,51.10
2023-01-30T17:50:28.466Z,50.80
2023-01-30T17:52:55.369Z,51.60
2023-01-30T17:55:22.541Z,50.90
2023-01-30T17:57:49.657Z,51.30
2023-01-30T18:00:19.299Z,51.10
2023-01-30T18:02:46.396Z,50.90
2023-01-30T18:05:13.391Z,50.90
2023-01-30T18:07:41.279Z,51.10
2023-01-30T18:10:18.469Z,51.80
2023-01-30T18:12:45.510Z,50.80
2023-01-30T18:15:15.807Z,50.90
2023-01-30T18:17:47.641Z,50.90
2023-01-30T18:20:19.634Z,50.90
2023-01-30T18:22:47.006Z,50.80
2023-01-30T18:25:15.016Z,50.80
2023-01-30T18:27:46.057Z,50.80
2023-01-30T18:30:17.243Z,50.80
2023-01-30T18:32:52.564Z,50.80
2023-01-30T18:35:21.391Z,51.10
2023-01-30T18:37:48.439Z,51.40
2023-01-30T18:40:15.417Z,50.80
2023-01-30T18:42:42.336Z,50.80
2023-01-30T18:45:09.628Z,51.60
2023-01-30T18:47:36.429Z,50.00
2023-01-30T18:50:04.309Z,50.70
2023-01-30T18:52:31.081Z,50.70
2023-01-30T18:54:57.815Z,51.00
2023-01-30T18:57:24.535Z,51.40
2023-01-30T18:59:51.176Z,51.80
2023-01-30T19:02:18.104Z,51.30
2023-01-30T19:04:44.860Z,51.10
2023-01-30T19:07:11.643Z,51.00
2023-01-30T19:09:38.442Z,50.90
2023-01-30T19:12:27.684Z,50.70
2023-01-30T19:14:54.505Z,51.20
2023-01-30T19:17:21.245Z,50.60
2023-01-30T19:19:48.243Z,51.20
2023-01-30T19:22:17.165Z,50.60
2023-01-30T19:24:44.747Z,51.00
2023-01-30T19:27:13.682Z,51.40
2023-01-30T19:29:42.665Z,51.00
2023-01-30T19:32:09.642Z,50.80
2023-01-30T19:34:37.089Z,51.30
2023-01-30T19:37:03.909Z,50.80
2023-01-30T19:39:30.691Z,51.10
2023-01-30T19:41:57.465Z,50.70
2023-01-30T19:44:24.272Z,51.50
2023-01-30T19:46:51.093Z,50.80
2023-01-30T19:49:18.900Z,50.90
2023-01-30T19:51:45.646Z,50.80
2023-01-30T19:54:14.756Z,51.50
2023-01-30T19:56:42.422Z,50.90
2023-01-30T19:59:12.815Z,51.90
2023-01-30T20:01:40.526Z,51.20
2023-01-30T20:04:07.563Z,51.90
2023-01-30T20:06:38.398Z,51.30
2023-01-30T20:09:08.062Z,50.80
2023-01-30T20:11:35.892Z,50.90
2023-01-30T20:14:04.756Z,51.70
2023-01-30T20:16:31.696Z,51.70
2023-01-30T20:19:03.300Z,51.80
2023-01-30T20:21:31.518Z,50.80
2023-01-30T20:24:00.019Z,51.70
2023-01-30T20:26:35.143Z,51.20
2023-01-30T20:29:03.765Z,50.70
2023-01-30T20:31:31.459Z,51.50
2023-01-30T20:34:01.482Z,51.60
2023-01-30T20:36:28.428Z,50.90
2023-01-30T20:38:56.071Z,50.70
2023-01-30T20:41:25.938Z,51.20
2023-01-30T20:43:57.198Z,51.30
2023-01-30T20:46:29.606Z,51.20
2023-01-30T20:48:58.239Z,50.80
2023-01-30T20:51:28.298Z,51.00
2023-01-30T20:53:57.386Z,50.70
2023-01-30T20:56:25.942Z,51.40
2023-01-30T20:58:52.816Z,51.50
2023-01-30T21:01:22.101Z,51.30
2023-01-30T21:03:50.427Z,51.40
2023-01-30T21:06:42.643Z,50.70
2023-01-30T21:09:07.407Z,50.70
2023-01-30T21:11:35.138Z,51.40
2023-01-30T21:14:02.140Z,51.60
2023-01-30T21:16:31.113Z,51.50
2023-01-30T21:19:04.169Z,51.00
2023-01-30T21:21:41.137Z,50.70
2023-01-30T21:24:13.721Z,50.70
2023-01-30T21:26:42.570Z,50.80
2023-01-30T21:29:09.325Z,50.90
2023-01-30T21:31:37.526Z,51.00
2023-01-30T21:34:07.988Z,50.90
2023-01-30T21:36:34.813Z,50.70
2023-01-30T21:39:20.370Z,51.10
2023-01-30T21:42:05.941Z,50.60
2023-01-30T21:44:37.676Z,51.30
2023-01-30T21:47:05.892Z,50.70
2023-01-30T21:49:33.218Z,51.50
2023-01-30T21:52:00.127Z,51.10
2023-01-30T21:54:26.959Z,50.70
2023-01-30T21:56:56.092Z,50.80
2023-01-30T21:59:22.968Z,51.40
2023-01-30T22:01:49.752Z,51.10
2023-01-30T22:04:16.579Z,51.60
2023-01-30T22:06:44.105Z,51.40
2023-01-30T22:09:15.653Z,50.80
2023-01-30T22:11:43.267Z,50.80
2023-01-30T22:14:13.166Z,51.20
2023-01-30T22:16:40.535Z,50.80
2023-01-30T22:19:07.566Z,51.40
2023-01-30T22:21:37.452Z,50.90
2023-01-30T22:24:05.983Z,51.40
2023-01-30T22:26:33.791Z,50.90
2023-01-30T22:29:02.128Z,51.10
2023-01-30T22:31:34.456Z,51.60
2023-01-30T22:34:04.249Z,51.60
2023-01-30T22:36:33.213Z,51.60
2023-01-30T22:39:00.239Z,51.20
2023-01-30T22:41:28.441Z,51.60
2023-01-30T22:43:57.783Z,51.90
2023-01-30T22:46:33.184Z,51.30
2023-01-30T22:49:01.106Z,51.10
2023-01-30T22:51:30.678Z,51.10
2023-01-30T22:54:00.645Z,51.60
2023-01-30T22:56:30.353Z,51.90
2023-01-30T22:58:57.272Z,51.80
2023-01-30T23:01:29.397Z,51.40
2023-01-30T23:04:01.700Z,51.30
2023-01-30T23:06:31.165Z,51.20
2023-01-30T23:08:59.455Z,51.20
2023-01-30T23:12:15.068Z,51.40
2023-01-30T23:14:42.771Z,52.10
2023-01-30T23:17:28.632Z,51.80
2023-01-30T23:19:56.133Z,51.60
2023-01-30T23:22:23.215Z,51.60
2023-01-30T23:24:51.169Z,52.30
2023-01-30T23:27:18.303Z,51.40
2023-01-30T23:29:45.166Z,52.00
2023-01-30T23:32:11.943Z,52.00
2023-01-30T23:34:38.933Z,52.00
2023-01-30T23:37:05.715Z,51.70
2023-01-30T23:39:32.389Z,51.70
2023-01-30T23:41:59.100Z,52.00
2023-01-30T23:44:25.871Z,51.70
2023-01-30T23:46:52.675Z,51.40
2023-01-30T23:49:19.532Z,52.10
2023-01-30T23:51:46.424Z,51.50
2023-01-30T23:54:14.168Z,52.30
2023-01-30T23:56:43.839Z,52.20
2023-01-30T23:59:11.824Z,51.60
